createdAt,value
2019-05-30T00:01:40.589Z,0
2019-05-30T00:04:44.783Z,0
2019-05-30T00:07:49.183Z,0
2019-05-30T00:10:54.329Z,0
2019-05-30T00:14:02.791Z,0
2019-05-30T00:17:08.695Z,0
2019-05-30T00:20:12.900Z,0
2019-05-30T00:23:17.235Z,0
2019-05-30T00:26:21.433Z,0
2019-05-30T00:29:25.768Z,0
2019-05-30T00:32:29.987Z,0
2019-05-30T00:35:34.319Z,0
2019-05-30T00:38:38.732Z,0
2019-05-30T00:41:42.935Z,0
2019-05-30T00:44:47.274Z,0
2019-05-30T00:47:51.592Z,0
2019-05-30T00:50:58.243Z,0
2019-05-30T00:54:05.246Z,0
2019-05-30T00:57:10.780Z,0
2019-05-30T01:00:15.122Z,0
2019-05-30T01:03:19.328Z,0
2019-05-30T01:06:23.731Z,0
2019-05-30T01:09:28.124Z,0
2019-05-30T01:12:32.405Z,0
2019-05-30T01:15:36.734Z,0
2019-05-30T01:18:40.936Z,0
2019-05-30T01:21:45.282Z,0
2019-05-30T01:24:49.724Z,0
2019-05-30T01:27:54.016Z,0
2019-05-30T01:31:11.806Z,0
2019-05-30T01:34:16.202Z,0
2019-05-30T01:37:20.492Z,0
2019-05-30T01:40:24.811Z,0
2019-05-30T01:43:29.062Z,0
2019-05-30T01:46:33.454Z,0
2019-05-30T01:49:37.801Z,0
2019-05-30T01:52:42.010Z,0
2019-05-30T01:55:50.015Z,0
2019-05-30T01:58:54.539Z,0
2019-05-30T02:02:02.900Z,0
2019-05-30T02:05:11.172Z,0
2019-05-30T02:08:15.368Z,0
2019-05-30T02:11:19.605Z,0
2019-05-30T02:14:26.797Z,0
2019-05-30T02:17:31.113Z,0
2019-05-30T02:20:35.446Z,0
2019-05-30T02:23:39.674Z,0
2019-05-30T02:26:43.972Z,0
2019-05-30T02:29:51.167Z,0
2019-05-30T02:32:55.491Z,0
2019-05-30T02:36:03.920Z,0.1
2019-05-30T02:39:15.079Z,0.1
2019-05-30T02:42:19.351Z,0.1
2019-05-30T02:45:23.618Z,0.1
2019-05-30T02:48:27.939Z,0.2
2019-05-30T02:51:32.208Z,0.3
2019-05-30T02:54:39.526Z,1.1
2019-05-30T02:57:43.789Z,198.7
2019-05-30T03:00:48.114Z,226.1
2019-05-30T03:03:52.334Z,230.4
2019-05-30T03:06:56.654Z,233.3
2019-05-30T03:10:05.025Z,233.3
2019-05-30T03:13:18.072Z,234.7
2019-05-30T03:16:22.298Z,237.6
2019-05-30T03:19:26.621Z,240.5
2019-05-30T03:22:30.963Z,243.4
2019-05-30T03:25:35.278Z,249.1
2019-05-30T03:28:39.523Z,262.1
2019-05-30T03:31:44.009Z,272.2
2019-05-30T03:34:48.418Z,280.8
2019-05-30T03:37:52.638Z,290.9
2019-05-30T03:40:56.988Z,298.1
2019-05-30T03:44:01.279Z,282.2
2019-05-30T03:47:16.887Z,290.9
2019-05-30T03:50:21.188Z,348.5
2019-05-30T03:53:25.527Z,354.2
2019-05-30T03:56:29.831Z,321.1
2019-05-30T03:59:34.154Z,305.3
2019-05-30T04:02:59.806Z,380.2
2019-05-30T04:06:04.097Z,420.5
2019-05-30T04:09:25.762Z,440.6
2019-05-30T04:12:29.934Z,285.1
2019-05-30T04:15:34.254Z,423.4
2019-05-30T04:18:38.571Z,429.1
2019-05-30T04:21:42.891Z,463.7
2019-05-30T04:24:47.132Z,498.2
2019-05-30T04:27:51.443Z,481
2019-05-30T04:30:55.649Z,469.4
2019-05-30T04:33:59.970Z,466.6
2019-05-30T04:37:04.291Z,460.8
2019-05-30T04:40:13.297Z,411.8
2019-05-30T04:43:22.170Z,411.8
2019-05-30T04:46:26.370Z,400.3
2019-05-30T04:49:30.692Z,380.2
2019-05-30T04:52:35.115Z,364.3
2019-05-30T04:55:39.338Z,351.4
2019-05-30T04:58:44.289Z,349.9
2019-05-30T05:01:48.590Z,345.6
2019-05-30T05:04:52.916Z,349.9
2019-05-30T05:07:57.163Z,351.4
2019-05-30T05:11:01.458Z,355.7
2019-05-30T05:14:05.774Z,357.1
2019-05-30T05:17:09.980Z,357.1
2019-05-30T05:20:21.289Z,352.8
2019-05-30T05:23:27.034Z,355.7
2019-05-30T05:26:31.256Z,352.8
2019-05-30T05:29:35.466Z,349.9
2019-05-30T05:32:39.795Z,349.9
2019-05-30T05:35:44.120Z,334.1
2019-05-30T05:38:48.318Z,339.8
2019-05-30T05:41:52.652Z,337
2019-05-30T05:44:56.858Z,341.3
2019-05-30T05:48:01.191Z,265
2019-05-30T05:51:05.617Z,276.5
2019-05-30T05:54:09.982Z,270.7
2019-05-30T05:57:14.255Z,266.4
2019-05-30T06:00:23.157Z,187.2
2019-05-30T06:03:29.554Z,298.1
2019-05-30T06:06:34.078Z,276.5
2019-05-30T06:09:38.426Z,316.8
2019-05-30T06:12:42.722Z,313.9
2019-05-30T06:15:46.932Z,303.8
2019-05-30T06:18:51.175Z,309.6
2019-05-30T06:21:55.996Z,308.2
2019-05-30T06:25:00.218Z,263.5
2019-05-30T06:28:05.160Z,305.3
2019-05-30T06:31:09.400Z,309.6
2019-05-30T06:34:40.082Z,309.6
2019-05-30T06:37:44.402Z,241.9
2019-05-30T06:40:48.647Z,223.2
2019-05-30T06:43:52.868Z,233.3
2019-05-30T06:46:57.089Z,234.7
2019-05-30T06:50:01.417Z,296.6
2019-05-30T06:53:05.726Z,298.1
2019-05-30T06:56:10.050Z,299.5
2019-05-30T06:59:14.295Z,288
2019-05-30T07:02:18.745Z,295.2
2019-05-30T07:05:30.328Z,295.2
2019-05-30T07:08:40.960Z,293.8
2019-05-30T07:11:45.274Z,290.9
2019-05-30T07:14:49.598Z,286.6
2019-05-30T07:17:53.812Z,292.3
2019-05-30T07:20:58.238Z,262.1
2019-05-30T07:24:02.440Z,292.3
2019-05-30T07:27:06.679Z,292.3
2019-05-30T07:30:10.999Z,292.3
2019-05-30T07:33:15.198Z,290.9
2019-05-30T07:36:19.436Z,256.3
2019-05-30T07:39:31.527Z,254.9
2019-05-30T07:42:40.779Z,259.2
2019-05-30T07:45:59.199Z,301
2019-05-30T07:49:03.455Z,296.6
2019-05-30T07:52:07.768Z,296.6
2019-05-30T07:55:14.753Z,285.1
2019-05-30T07:58:19.075Z,260.6
2019-05-30T08:01:23.299Z,262.1
2019-05-30T08:04:30.093Z,283.7
2019-05-30T08:07:39.035Z,285.1
2019-05-30T08:10:43.322Z,280.8
2019-05-30T08:13:47.642Z,273.6
2019-05-30T08:16:51.846Z,266.4
2019-05-30T08:19:56.078Z,275
2019-05-30T08:23:00.337Z,267.8
2019-05-30T08:26:07.635Z,267.8
2019-05-30T08:29:14.919Z,265
2019-05-30T08:32:19.085Z,265
2019-05-30T08:35:49.048Z,267.8
2019-05-30T08:38:54.275Z,263.5
2019-05-30T08:41:58.489Z,263.5
2019-05-30T08:45:02.703Z,263.5
2019-05-30T08:48:07.031Z,247.7
2019-05-30T08:51:11.382Z,252
2019-05-30T08:54:15.651Z,256.3
2019-05-30T08:57:19.864Z,252
2019-05-30T09:00:24.114Z,250.6
2019-05-30T09:03:28.431Z,253.4
2019-05-30T09:06:32.844Z,257.8
2019-05-30T09:09:40.770Z,263.5
2019-05-30T09:12:50.812Z,263.5
2019-05-30T09:15:55.081Z,265
2019-05-30T09:19:02.314Z,266.4
2019-05-30T09:22:06.513Z,266.4
2019-05-30T09:25:10.867Z,250.6
2019-05-30T09:28:18.019Z,253.4
2019-05-30T09:31:22.273Z,253.4
2019-05-30T09:34:26.467Z,257.8
2019-05-30T09:37:30.814Z,256.3
2019-05-30T09:40:35.087Z,252
2019-05-30T09:43:42.869Z,240.5
2019-05-30T09:46:51.656Z,252
2019-05-30T09:49:55.940Z,246.2
2019-05-30T09:53:00.212Z,253.4
2019-05-30T09:56:04.515Z,256.3
2019-05-30T09:59:08.761Z,254.9
2019-05-30T10:02:13.363Z,253.4
2019-05-30T10:05:17.626Z,250.6
2019-05-30T10:08:21.903Z,266.4
2019-05-30T10:11:26.335Z,252
2019-05-30T10:14:35.438Z,250.6
2019-05-30T10:17:42.569Z,260.6
2019-05-30T10:20:57.098Z,250.6
2019-05-30T10:24:01.432Z,263.5
2019-05-30T10:27:06.084Z,260.6
2019-05-30T10:30:10.380Z,249.1
2019-05-30T10:33:14.825Z,249.1
2019-05-30T10:36:21.281Z,234.7
2019-05-30T10:39:25.494Z,259.2
2019-05-30T10:42:29.701Z,260.6
2019-05-30T10:45:34.136Z,260.6
2019-05-30T10:48:41.607Z,259.2
2019-05-30T10:51:49.585Z,259.2
2019-05-30T10:55:02.162Z,254.9
2019-05-30T10:58:06.373Z,259.2
2019-05-30T11:01:10.670Z,257.8
2019-05-30T11:04:15.022Z,260.6
2019-05-30T11:07:19.339Z,247.7
2019-05-30T11:10:23.556Z,247.7
2019-05-30T11:13:27.877Z,260.6
2019-05-30T11:16:32.080Z,262.1
2019-05-30T11:19:36.421Z,260.6
2019-05-30T11:22:40.980Z,260.6
2019-05-30T11:25:45.269Z,244.8
2019-05-30T11:28:52.596Z,246.2
2019-05-30T11:31:59.040Z,246.2
2019-05-30T11:35:03.457Z,241.9
2019-05-30T11:38:07.791Z,246.2
2019-05-30T11:41:11.989Z,247.7
2019-05-30T11:44:16.224Z,260.6
2019-05-30T11:47:20.430Z,253.4
2019-05-30T11:50:24.650Z,244.8
2019-05-30T11:53:28.968Z,246.2
2019-05-30T11:56:33.494Z,259.2
2019-05-30T11:59:37.715Z,265
2019-05-30T12:02:44.709Z,267.8
2019-05-30T12:05:48.874Z,259.2
2019-05-30T12:08:56.907Z,265
2019-05-30T12:12:02.775Z,265
2019-05-30T12:15:07.035Z,257.8
2019-05-30T12:18:11.324Z,266.4
2019-05-30T12:21:15.552Z,250.6
2019-05-30T12:24:19.858Z,256.3
2019-05-30T12:27:24.090Z,249.1
2019-05-30T12:30:28.386Z,250.6
2019-05-30T12:33:32.763Z,249.1
2019-05-30T12:36:37.031Z,249.1
2019-05-30T12:39:41.241Z,249.1
2019-05-30T12:42:45.474Z,247.7
2019-05-30T12:45:49.916Z,253.4
2019-05-30T12:48:57.302Z,247.7
2019-05-30T12:52:05.871Z,247.7
2019-05-30T12:55:10.382Z,249.1
2019-05-30T12:58:14.562Z,250.6
2019-05-30T13:01:18.882Z,257.8
2019-05-30T13:04:23.186Z,246.2
2019-05-30T13:07:27.409Z,250.6
2019-05-30T13:10:33.420Z,-1
2019-05-30T13:13:39.661Z,-1
2019-05-30T13:16:45.873Z,-1
2019-05-30T13:19:52.089Z,-1
2019-05-30T13:23:02.570Z,-1
2019-05-30T13:26:09.036Z,-1
2019-05-30T13:29:15.188Z,-1
2019-05-30T13:32:21.469Z,-1
2019-05-30T13:35:27.600Z,-1
2019-05-30T13:38:33.790Z,-1
2019-05-30T13:41:39.915Z,-1
2019-05-30T13:44:46.123Z,-1
2019-05-30T13:47:52.282Z,-1
2019-05-30T13:51:00.720Z,-1
2019-05-30T13:54:10.525Z,-1
2019-05-30T13:57:16.716Z,-1
2019-05-30T14:00:22.991Z,-1
2019-05-30T14:03:29.110Z,-1
2019-05-30T14:06:35.416Z,-1
2019-05-30T14:09:41.811Z,-1
2019-05-30T14:12:48.076Z,-1
2019-05-30T14:15:54.319Z,-1
2019-05-30T14:19:05.306Z,-1
2019-05-30T14:22:14.657Z,-1
2019-05-30T14:25:20.891Z,-1
2019-05-30T14:28:27.024Z,-1
2019-05-30T14:31:33.230Z,-1
2019-05-30T14:34:39.392Z,-1
2019-05-30T14:37:45.704Z,-1
2019-05-30T14:40:52.031Z,-1
2019-05-30T14:44:00.839Z,-1
2019-05-30T14:47:13.142Z,-1
2019-05-30T14:50:20.347Z,-1
2019-05-30T14:56:32.749Z,-1
2019-05-30T14:59:38.940Z,-1
2019-05-30T15:02:45.071Z,-1
2019-05-30T15:05:51.320Z,-1
2019-05-30T15:09:05.769Z,-1
2019-05-30T15:12:31.199Z,-1
2019-05-30T15:15:37.469Z,-1
2019-05-30T15:18:43.581Z,-1
2019-05-30T15:21:49.731Z,-1
2019-05-30T15:24:56.110Z,-1
2019-05-30T15:28:02.427Z,-1
2019-05-30T15:31:12.386Z,-1
2019-05-30T15:34:19.772Z,-1
2019-05-30T15:40:32.256Z,-1
2019-05-30T15:43:38.384Z,-1
2019-05-30T15:46:44.736Z,-1
2019-05-30T15:49:55.202Z,-1
2019-05-30T15:53:01.415Z,-1
2019-05-30T15:56:08.863Z,-1
2019-05-30T15:59:17.727Z,-1
2019-05-30T16:02:23.906Z,-1
2019-05-30T16:05:30.169Z,-1
2019-05-30T16:08:36.301Z,-1
2019-05-30T16:11:42.598Z,-1
2019-05-30T16:14:48.735Z,-1
2019-05-30T16:17:54.929Z,-1
2019-05-30T16:21:01.218Z,-1
2019-05-30T16:24:07.390Z,-1
2019-05-30T16:27:17.676Z,-1
2019-05-30T16:30:29.523Z,-1
2019-05-30T16:36:41.878Z,-1
2019-05-30T16:40:08.185Z,-1
2019-05-30T16:43:16.213Z,-1
2019-05-30T16:46:25.086Z,-1
2019-05-30T16:49:31.286Z,-1
2019-05-30T16:52:37.415Z,-1
2019-05-30T16:55:43.615Z,-1
2019-05-30T16:58:52.544Z,-1
2019-05-30T17:02:01.473Z,-1
2019-05-30T17:05:07.743Z,-1
2019-05-30T17:08:13.903Z,-1
2019-05-30T17:11:21.986Z,-1
2019-05-30T17:14:28.899Z,-1
2019-05-30T17:20:41.406Z,-1
2019-05-30T17:23:47.542Z,-1
2019-05-30T17:26:55.094Z,-1
2019-05-30T17:30:01.224Z,-1
2019-05-30T17:33:10.287Z,-1
2019-05-30T17:36:16.606Z,-1
2019-05-30T17:39:25.174Z,-1
2019-05-30T17:42:32.027Z,-1
2019-05-30T17:45:38.224Z,-1
2019-05-30T17:48:44.355Z,-1
2019-05-30T17:54:59.173Z,-1
2019-05-30T17:58:10.007Z,-1
2019-05-30T18:01:16.311Z,-1
2019-05-30T18:04:27.089Z,-1
2019-05-30T18:07:34.373Z,-1
2019-05-30T18:10:56.109Z,-1
2019-05-30T18:14:02.267Z,-1
2019-05-30T18:17:11.806Z,-1
2019-05-30T18:20:17.975Z,-1
2019-05-30T18:23:27.567Z,-1
2019-05-30T18:26:37.862Z,-1
2019-05-30T18:29:44.050Z,-1
2019-05-30T18:32:50.315Z,-1
2019-05-30T18:35:59.117Z,-1
2019-05-30T18:39:05.403Z,-1
2019-05-30T18:42:11.675Z,-1
2019-05-30T18:45:17.804Z,-1
2019-05-30T18:48:29.264Z,-1
2019-05-30T18:51:36.696Z,-1
2019-05-30T18:54:42.990Z,-1
2019-05-30T19:00:55.312Z,-1
2019-05-30T19:04:02.421Z,-1
2019-05-30T19:07:08.744Z,-1
2019-05-30T19:10:14.936Z,-1
2019-05-30T19:13:21.062Z,-1
2019-05-30T19:16:33.022Z,-1
2019-05-30T19:19:39.107Z,-1
2019-05-30T19:22:45.479Z,-1
2019-05-30T19:25:51.701Z,-1
2019-05-30T19:28:57.961Z,-1
2019-05-30T19:35:10.257Z,-1
2019-05-30T19:38:16.546Z,-1
2019-05-30T19:41:22.837Z,-1
2019-05-30T19:44:41.639Z,-1
2019-05-30T19:47:47.849Z,-1
2019-05-30T19:50:54.115Z,-1
2019-05-30T19:57:06.549Z,-1
2019-05-30T20:00:12.813Z,-1
2019-05-30T20:03:19.086Z,-1
2019-05-30T20:06:27.806Z,-1
2019-05-30T20:09:36.645Z,-1
2019-05-30T20:12:44.024Z,-1
2019-05-30T20:15:50.190Z,-1
2019-05-30T20:18:56.410Z,-1
2019-05-30T20:22:02.515Z,-1
2019-05-30T20:25:08.658Z,-1
2019-05-30T20:31:21.120Z,-1
2019-05-30T20:34:27.388Z,-1
2019-05-30T20:37:34.569Z,-1
2019-05-30T20:40:43.619Z,-1
2019-05-30T20:43:50.381Z,-1
2019-05-30T20:46:56.657Z,-1
2019-05-30T20:50:02.895Z,-1
2019-05-30T20:53:09.078Z,-1
2019-05-30T20:56:15.302Z,-1
2019-05-30T20:59:21.530Z,-1
2019-05-30T21:05:41.917Z,-1
2019-05-30T21:08:49.420Z,-1
2019-05-30T21:11:55.546Z,-1
2019-05-30T21:15:01.761Z,-1
2019-05-30T21:18:08.013Z,-1
2019-05-30T21:21:14.292Z,-1
2019-05-30T21:24:20.414Z,-1
2019-05-30T21:27:26.663Z,-1
2019-05-30T21:30:32.775Z,-1
2019-05-30T21:33:47.906Z,-1
2019-05-30T21:36:54.608Z,-1
2019-05-30T21:40:00.805Z,-1
2019-05-30T21:43:12.989Z,-1
2019-05-30T21:46:19.164Z,-1
2019-05-30T21:49:25.308Z,-1
2019-05-30T21:52:31.486Z,-1
2019-05-30T21:55:37.617Z,-1
2019-05-30T21:58:48.200Z,-1
2019-05-30T22:02:00.280Z,-1
2019-05-30T22:05:06.397Z,-1
2019-05-30T22:08:12.531Z,-1
2019-05-30T22:11:18.832Z,-1
2019-05-30T22:14:25.082Z,-1
2019-05-30T22:17:31.333Z,-1
2019-05-30T22:20:37.511Z,-1
2019-05-30T22:23:48.166Z,-1
2019-05-30T22:26:55.681Z,-1
2019-05-30T22:30:01.959Z,-1
2019-05-30T22:33:08.073Z,-1
2019-05-30T22:36:14.273Z,-1
2019-05-30T22:39:20.408Z,-1
2019-05-30T22:42:26.614Z,-1
2019-05-30T22:45:32.755Z,-1
2019-05-30T22:48:38.926Z,-1
2019-05-30T22:51:48.906Z,-1
2019-05-30T22:58:02.441Z,-1
2019-05-30T23:01:08.603Z,-1
2019-05-30T23:04:14.771Z,-1
2019-05-30T23:07:20.915Z,-1
2019-05-30T23:10:27.097Z,-1
2019-05-30T23:13:43.347Z,-1
2019-05-30T23:19:59.811Z,-1
2019-05-30T23:23:05.971Z,-1
2019-05-30T23:26:12.151Z,-1
2019-05-30T23:29:18.369Z,-1
2019-05-30T23:32:24.494Z,-1
2019-05-30T23:35:30.747Z,-1
2019-05-30T23:38:36.899Z,-1
2019-05-30T23:41:43.175Z,-1
2019-05-30T23:44:51.257Z,-1
2019-05-30T23:48:00.377Z,-1
2019-05-30T23:54:15.728Z,-1
2019-05-30T23:57:21.856Z,-1
